Terminal Aerodrome Forecast
Issued by NWS

Home | Current Version | Previous Version | Text Only | Print | Product List | Glossary On
Versions: 1 2 3 4 5 6 7 8 9 10 11 12
000
FTUS44 KTSA 031120
TAFBVO
TAF
KBVO 031120Z 0312/0412 04005KT P6SM VCSH SCT050 OVC100
     FM031600 06005KT 6SM -RA OVC050
      TEMPO 0318/0321 10006KT 5SM -RA BKN025
     FM032100 08004KT 4SM -RA BR OVC012
     FM040000 08005KT 2SM -RA BR OVC007=

USA.gov is the U.S. government's official web portal to all federal, state and local government web resources and services.